createdAt,value
2018-05-17T00:01:08.094Z,0
2018-05-17T00:11:08.162Z,0
2018-05-17T00:21:08.080Z,0
2018-05-17T00:31:08.127Z,0
2018-05-17T00:41:08.195Z,0
2018-05-17T00:51:09.082Z,0
2018-05-17T01:01:08.138Z,0
2018-05-17T01:11:08.088Z,0
2018-05-17T01:21:08.185Z,0
2018-05-17T01:31:09.191Z,0
2018-05-17T01:41:08.092Z,0
2018-05-17T01:51:09.167Z,0
2018-05-17T02:01:09.173Z,0
2018-05-17T02:11:08.058Z,0
2018-05-17T02:21:08.157Z,0
2018-05-17T02:31:08.153Z,0
2018-05-17T02:41:09.121Z,0
2018-05-17T02:51:08.095Z,0
2018-05-17T03:01:08.201Z,0
2018-05-17T03:11:08.146Z,0
2018-05-17T03:21:08.103Z,0
2018-05-17T03:31:08.177Z,0
2018-05-17T03:41:08.106Z,0
2018-05-17T03:51:08.655Z,5
2018-05-17T04:01:08.172Z,10
2018-05-17T04:11:08.208Z,10
2018-05-17T04:21:09.225Z,20
2018-05-17T04:31:08.287Z,25
2018-05-17T04:41:09.207Z,45
2018-05-17T04:51:08.269Z,45
2018-05-17T05:01:09.208Z,60
2018-05-17T05:11:09.253Z,65
2018-05-17T05:21:08.205Z,75
2018-05-17T05:31:08.372Z,75
2018-05-17T05:41:08.282Z,85
2018-05-17T05:51:08.241Z,85
2018-05-17T06:01:09.363Z,105
2018-05-17T06:11:08.259Z,115
2018-05-17T06:21:08.371Z,120
2018-05-17T06:31:08.285Z,125
2018-05-17T06:41:08.381Z,170
2018-05-17T06:51:08.444Z,195
2018-05-17T07:01:08.463Z,210
2018-05-17T07:11:08.448Z,170
2018-05-17T07:21:08.409Z,235
2018-05-17T07:31:08.451Z,380
2018-05-17T07:41:08.462Z,290
2018-05-17T07:51:08.480Z,240
2018-05-17T08:01:08.457Z,290
2018-05-17T08:11:08.371Z,480
2018-05-17T08:21:08.466Z,500
2018-05-17T08:31:08.376Z,440
2018-05-17T08:41:08.928Z,330
2018-05-17T08:52:06.103Z,260
2018-05-17T09:02:07.841Z,150
2018-05-17T09:12:05.594Z,240
2018-05-17T09:22:10.757Z,315
2018-05-17T09:32:06.588Z,220
2018-05-17T09:41:56.603Z,140
2018-05-17T09:51:32.981Z,130
2018-05-17T10:01:54.548Z,140
2018-05-17T10:11:54.074Z,270
2018-05-17T10:21:20.377Z,135
2018-05-17T10:31:16.531Z,135
2018-05-17T10:41:16.519Z,165
2018-05-17T10:51:16.042Z,125
2018-05-17T11:01:18.006Z,130
2018-05-17T11:11:17.439Z,125
2018-05-17T11:21:16.532Z,120
2018-05-17T11:31:57.023Z,125
2018-05-17T11:41:47.620Z,125
2018-05-17T11:51:17.983Z,125
2018-05-17T12:01:15.975Z,120
2018-05-17T12:11:17.830Z,120
2018-05-17T12:21:19.347Z,120
2018-05-17T12:31:18.745Z,120
2018-05-17T12:41:16.731Z,125
2018-05-17T12:51:16.561Z,120
2018-05-17T13:01:17.010Z,120
2018-05-17T13:11:28.649Z,120
2018-05-17T13:21:16.479Z,125
2018-05-17T13:31:58.530Z,125
2018-05-17T13:41:08.346Z,125
2018-05-17T13:51:08.559Z,125
2018-05-17T14:01:49.373Z,125
2018-05-17T14:11:56.254Z,125
2018-05-17T14:21:19.425Z,120
2018-05-17T14:31:16.860Z,120
2018-05-17T14:41:14.996Z,120
2018-05-17T14:51:14.660Z,125
2018-05-17T15:12:04.203Z,120
2018-05-17T15:13:24.426Z,120
2018-05-17T15:23:06.538Z,115
2018-05-17T15:33:07.710Z,115
2018-05-17T15:43:06.351Z,110
2018-05-17T15:53:02.936Z,110
2018-05-17T16:03:02.809Z,100
2018-05-17T16:13:10.171Z,110
2018-05-17T16:23:04.613Z,110
2018-05-17T16:33:04.549Z,105
2018-05-17T16:43:04.112Z,105
2018-05-17T16:53:02.760Z,100
2018-05-17T17:03:08.019Z,90
2018-05-17T17:13:08.694Z,85
2018-05-17T17:23:08.454Z,80
2018-05-17T17:33:06.511Z,75
2018-05-17T17:43:04.929Z,70
2018-05-17T17:53:06.226Z,65
2018-05-17T18:03:26.473Z,55
2018-05-17T18:13:17.359Z,40
2018-05-17T18:23:35.502Z,35
2018-05-17T18:33:19.237Z,20
2018-05-17T18:43:05.003Z,15
2018-05-17T18:53:03.151Z,5
2018-05-17T19:03:06.701Z,5
2018-05-17T19:13:03.801Z,0
2018-05-17T19:22:58.395Z,0
2018-05-17T19:32:58.306Z,0
2018-05-17T19:42:58.542Z,0
2018-05-17T19:52:58.466Z,0
2018-05-17T20:02:58.458Z,0
2018-05-17T20:12:58.386Z,0
2018-05-17T20:22:58.516Z,0
2018-05-17T20:32:58.467Z,0
2018-05-17T20:42:58.417Z,0
2018-05-17T20:52:58.440Z,0
2018-05-17T21:02:58.603Z,0
2018-05-17T21:12:58.533Z,0
2018-05-17T21:22:58.476Z,0
2018-05-17T21:32:58.646Z,0
2018-05-17T21:42:58.585Z,0
2018-05-17T21:52:58.521Z,0
2018-05-17T22:02:58.444Z,0
2018-05-17T22:12:59.067Z,0
2018-05-17T22:22:58.596Z,0
2018-05-17T22:32:58.435Z,0
2018-05-17T22:42:58.465Z,0
2018-05-17T22:52:58.467Z,0
2018-05-17T23:02:58.535Z,0
2018-05-17T23:12:58.414Z,0
2018-05-17T23:22:58.669Z,0
2018-05-17T23:32:58.820Z,0
2018-05-17T23:42:58.630Z,0
2018-05-17T23:53:08.524Z,0
